createdAt,value
2018-08-24T00:02:17.380Z,8.33
2018-08-24T00:04:50.890Z,7.80
2018-08-24T00:07:23.961Z,8.60
2018-08-24T00:09:57.265Z,8.07
2018-08-24T00:12:30.129Z,7.60
2018-08-24T00:15:03.012Z,8.13
2018-08-24T00:17:35.632Z,8.37
2018-08-24T00:20:08.264Z,7.80
2018-08-24T00:22:41.058Z,8.40
2018-08-24T00:25:13.999Z,8.77
2018-08-24T00:27:46.717Z,8.63
2018-08-24T00:30:23.753Z,8.60
2018-08-24T00:32:57.045Z,8.77
2018-08-24T00:35:29.988Z,8.30
2018-08-24T00:38:02.985Z,8.27
2018-08-24T00:40:35.841Z,7.97
2018-08-24T00:43:08.722Z,8.50
2018-08-24T00:45:41.516Z,8.43
2018-08-24T00:48:14.374Z,9.10
2018-08-24T00:50:47.160Z,8.70
2018-08-24T00:53:20.154Z,8.35
2018-08-24T00:55:52.981Z,8.98
2018-08-24T00:58:26.044Z,8.93
2018-08-24T01:01:03.581Z,8.57
2018-08-24T01:03:36.289Z,8.57
2018-08-24T01:06:09.462Z,8.90
2018-08-24T01:08:45.657Z,8.95
2018-08-24T01:11:18.438Z,9.03
2018-08-24T01:13:52.721Z,8.90
2018-08-24T01:16:30.245Z,9.10
2018-08-24T01:19:02.947Z,8.68
2018-08-24T01:21:35.865Z,8.70
2018-08-24T01:24:08.776Z,8.57
2018-08-24T01:26:41.621Z,8.68
2018-08-24T01:29:14.495Z,8.68
2018-08-24T01:31:47.621Z,8.55
2018-08-24T01:34:20.324Z,7.75
2018-08-24T01:39:25.327Z,8.60
2018-08-24T01:44:31.240Z,8.80
2018-08-24T01:47:04.468Z,8.60
2018-08-24T01:49:37.244Z,8.60
2018-08-24T01:52:10.335Z,8.28
2018-08-24T01:54:43.015Z,8.23
2018-08-24T01:57:16.212Z,9.33
2018-08-24T01:59:49.327Z,8.75
2018-08-24T02:04:54.820Z,8.30
2018-08-24T02:07:27.902Z,8.63
2018-08-24T02:10:00.710Z,8.70
2018-08-24T02:12:38.445Z,8.33
2018-08-24T02:15:11.381Z,8.30
2018-08-24T02:17:49.243Z,8.38
2018-08-24T02:20:31.239Z,8.73
2018-08-24T02:23:09.880Z,9.05
2018-08-24T02:25:43.343Z,8.53
2018-08-24T02:28:16.549Z,8.28
2018-08-24T02:30:49.639Z,8.65
2018-08-24T02:33:22.387Z,8.60
2018-08-24T02:35:56.896Z,8.80
2018-08-24T02:38:30.239Z,9.18
2018-08-24T02:41:03.391Z,9.40
2018-08-24T02:43:36.224Z,9.93
2018-08-24T02:46:09.232Z,8.83
2018-08-24T02:48:42.196Z,9.05
2018-08-24T02:51:15.233Z,9.60
2018-08-24T02:53:47.957Z,9.43
2018-08-24T02:56:21.703Z,9.65
2018-08-24T02:58:55.444Z,9.13
2018-08-24T03:01:28.416Z,9.35
2018-08-24T03:04:01.467Z,9.28
2018-08-24T03:06:33.996Z,9.50
2018-08-24T03:09:10.678Z,10.18
2018-08-24T03:11:43.510Z,9.00
2018-08-24T03:14:16.461Z,9.30
2018-08-24T03:16:54.870Z,9.28
2018-08-24T03:19:28.058Z,9.78
2018-08-24T03:22:01.239Z,9.30
2018-08-24T03:24:34.476Z,9.60
2018-08-24T03:27:07.354Z,9.33
2018-08-24T03:29:40.322Z,9.33
2018-08-24T03:34:45.370Z,9.73
2018-08-24T03:37:18.420Z,10.03
2018-08-24T03:39:51.540Z,9.50
2018-08-24T03:42:24.330Z,9.60
2018-08-24T03:44:57.539Z,10.00
2018-08-24T03:47:29.929Z,10.63
2018-08-24T03:50:02.640Z,10.17
2018-08-24T03:52:35.434Z,10.33
2018-08-24T03:55:08.553Z,10.80
2018-08-24T03:57:41.406Z,9.90
2018-08-24T04:00:19.752Z,9.93
2018-08-24T04:02:53.661Z,10.48
2018-08-24T04:05:27.702Z,10.58
2018-08-24T04:08:01.228Z,10.15
2018-08-24T04:10:37.522Z,10.65
2018-08-24T04:13:11.824Z,10.23
2018-08-24T04:15:45.236Z,10.72
2018-08-24T04:18:18.692Z,11.33
2018-08-24T04:20:52.227Z,11.00
2018-08-24T04:23:25.340Z,10.93
2018-08-24T04:25:59.424Z,10.88
2018-08-24T04:28:33.031Z,11.30
2018-08-24T04:31:06.241Z,11.50
2018-08-24T04:33:38.889Z,12.00
2018-08-24T04:36:11.835Z,11.75
2018-08-24T04:38:44.526Z,10.57
2018-08-24T04:41:19.483Z,11.27
2018-08-24T04:43:52.448Z,11.20
2018-08-24T04:46:25.257Z,10.97
2018-08-24T04:48:58.524Z,11.40
2018-08-24T04:51:31.642Z,10.73
2018-08-24T04:54:06.591Z,10.90
2018-08-24T04:56:39.287Z,11.43
2018-08-24T04:59:12.033Z,10.23
2018-08-24T05:01:45.001Z,10.77
2018-08-24T05:04:17.968Z,11.00
2018-08-24T05:06:50.854Z,10.90
2018-08-24T05:09:23.439Z,10.97
2018-08-24T05:11:56.832Z,10.37
2018-08-24T05:14:29.579Z,10.97
2018-08-24T05:17:02.399Z,10.50
2018-08-24T05:19:34.956Z,9.93
2018-08-24T05:22:07.941Z,10.68
2018-08-24T05:24:40.673Z,10.50
2018-08-24T05:27:13.332Z,9.80
2018-08-24T05:29:46.214Z,10.43
2018-08-24T05:32:19.320Z,9.70
2018-08-24T05:34:52.332Z,9.55
2018-08-24T05:37:25.465Z,9.90
2018-08-24T05:39:58.576Z,9.05
2018-08-24T05:42:31.483Z,9.43
2018-08-24T05:45:04.374Z,9.55
2018-08-24T05:50:54.178Z,9.83
2018-08-24T05:53:27.044Z,9.88
2018-08-24T05:56:00.480Z,9.57
2018-08-24T05:58:33.034Z,9.37
2018-08-24T06:01:05.931Z,9.47
2018-08-24T06:03:38.582Z,10.17
2018-08-24T06:06:11.299Z,9.80
2018-08-24T06:08:44.879Z,10.27
2018-08-24T06:11:17.573Z,10.60
2018-08-24T06:13:50.445Z,11.03
2018-08-24T06:16:23.334Z,11.30
2018-08-24T06:18:56.677Z,10.50
2018-08-24T06:21:29.634Z,11.30
2018-08-24T06:24:02.266Z,10.15
2018-08-24T06:26:35.250Z,11.05
2018-08-24T06:29:13.617Z,11.43
2018-08-24T06:31:46.496Z,11.10
2018-08-24T06:34:19.483Z,10.77
2018-08-24T06:36:52.422Z,9.88
2018-08-24T06:39:25.224Z,10.38
2018-08-24T06:41:58.609Z,10.45
2018-08-24T06:44:31.069Z,11.20
2018-08-24T06:47:03.889Z,11.00
2018-08-24T06:49:36.889Z,11.13
2018-08-24T06:52:09.862Z,11.70
2018-08-24T06:54:44.569Z,11.53
2018-08-24T06:57:17.562Z,11.88
2018-08-24T06:59:50.759Z,11.08
2018-08-24T07:02:24.849Z,12.63
2018-08-24T07:04:59.427Z,12.25
2018-08-24T07:07:36.429Z,12.15
2018-08-24T07:10:09.408Z,12.60
2018-08-24T07:12:42.376Z,12.80
2018-08-24T07:15:18.224Z,12.03
